WetterOnline ( http://www.wetteronline.de )

Wetter aktuell Fehmarn

Aktuelles Wetter: Westermarkelsdorf (9m)

6-stündlich | Neueste Meldungen
Ortszeit Temperatur Wetter
Sa, 22.09. 14:00 14.6° C leicht bewölkt
Sa, 22.09. 8:00 12.8° C fast wolkenlos
Sa, 22.09. 2:00 11.1° C leichter Regen
Fr, 21.09. 20:00 13.1° C wolkig
Fr, 21.09. 14:00 15.9° C Sprühregen
Fr, 21.09. 8:00 19.2° C bewölkt
Fr, 21.09. 2:00 19.1° C bedeckt
Do, 20.09. 20:00 21.3° C bewölkt
Ortszeit Temperatur Wetter
Sa, 22.09. 19:00 14.3° C wolkig
Sa, 22.09. 18:50 14.3° C wolkig
Sa, 22.09. 18:40 14.5° C wolkig
Sa, 22.09. 18:30 14.2° C wolkig
Sa, 22.09. 18:20 14.2° C wolkig
Sa, 22.09. 18:10 14.3° C bedeckt
Sa, 22.09. 18:00 14.1° C leicht bewölkt
Sa, 22.09. 17:30 14.0° C fast wolkenlos
Sa, 22.09. 17:00 13.9° C wolkig
Sa, 22.09. 16:30 14.9° C leicht bewölkt
Sa, 22.09. 16:00 14.6° C bewölkt
Ortszeit Relative Feuchte Sichtweite
Sa, 22.09. 14:00 72% 12 km
Sa, 22.09. 8:00 78% 26 km
Sa, 22.09. 2:00 84% 14 km
Fr, 21.09. 20:00 70% 40 km
Fr, 21.09. 14:00 84% 17 km
Fr, 21.09. 8:00 63% 30 km
Fr, 21.09. 2:00 67% 40 km
Do, 20.09. 20:00 62% 40 km
Ortszeit Relative Feuchte Sichtweite
Sa, 22.09. 19:00 61% 30 km
Sa, 22.09. 18:50 61% -
Sa, 22.09. 18:40 62% -
Sa, 22.09. 18:30 67% 40 km
Sa, 22.09. 18:20 67% -
Sa, 22.09. 18:10 66% -
Sa, 22.09. 18:00 71% 16 km
Sa, 22.09. 17:30 72% 11 km
Sa, 22.09. 17:00 73% 13 km
Sa, 22.09. 16:30 58% 11 km
Sa, 22.09. 16:00 66% 29 km
Ortszeit Niederschlagsmenge Niederschlagsart
Sa, 22.09. 14:00 0.9 l/m2 in 6 Std. Regen
Sa, 22.09. 8:00 1 l/m2 in 12 Std. Regen
Sa, 22.09. 2:00 0.3 l/m2 in 6 Std. Regen
Fr, 21.09. 20:00 3 l/m2 in 12 Std. Regen
Fr, 21.09. 14:00 0.1 l/m2 in 6 Std. Regen
Fr, 21.09. 8:00 0.0 l/m2 in 12 Std. -
Fr, 21.09. 2:00 0.0 l/m2 in 6 Std. -
Do, 20.09. 20:00 0.0 l/m2 in 12 Std. -
Ortszeit Niederschlagsmenge Niederschlagsart
Sa, 22.09. 19:00 0.0 l/m2 in 1 Std. -
Sa, 22.09. 18:50 keine Meldung -
Sa, 22.09. 18:40 keine Meldung -
Sa, 22.09. 18:30 0.0 l/m2 in 1 Std. -
Sa, 22.09. 18:20 keine Meldung -
Sa, 22.09. 18:10 keine Meldung -
Sa, 22.09. 18:00 0.0 l/m2 in 1 Std. -
Sa, 22.09. 17:30 0.0 l/m2 in 1 Std. -
Sa, 22.09. 17:00 0.0 l/m2 in 1 Std. Regen
Sa, 22.09. 16:30 0.0 l/m2 in 1 Std. -
Sa, 22.09. 16:00 0.1 l/m2 in 1 Std. Regen
Ortszeit Stärke Spitze Richtung
km/h Bft. km/h Grad Sektor
Sa, 22.09. 14:00 43 6 79 240° SW
Sa, 22.09. 8:00 41 6 70 260° W
Sa, 22.09. 2:00 50 7 90 240° SW
Fr, 21.09. 20:00 58 7 97 260° W
Fr, 21.09. 14:00 61 7 79 260° W
Fr, 21.09. 8:00 22 4 40 170° S
Fr, 21.09. 2:00 15 3 24 170° S
Do, 20.09. 20:00 13 3 35 210° SW
Ortszeit Stärke Spitze Richtung
km/h Bft. km/h Grad Sektor
Sa, 22.09. 19:00 54 7 65 260° W
Sa, 22.09. 18:50 54 7 - 260° W
Sa, 22.09. 18:40 50 7 - 260° W
Sa, 22.09. 18:30 43 6 59 260° W
Sa, 22.09. 18:20 43 6 - 260° W
Sa, 22.09. 18:10 44 6 - 260° W
Sa, 22.09. 18:00 41 6 54 250° W
Sa, 22.09. 17:30 40 6 54 240° SW
Sa, 22.09. 17:00 35 5 65 230° SW
Sa, 22.09. 16:30 50 7 65 260° W
Sa, 22.09. 16:00 50 7 76 250° W
Ortszeit Untergrenze Bedeckung Gattung
total tief tief mittel hoch
Sa, 22.09. 14:00 2700 m 2/8 2/8 - - -
Sa, 22.09. 8:00 2100 m 1/8 1/8 - - -
Sa, 22.09. 2:00 540 m 8/8 8/8 - - -
Fr, 21.09. 20:00 1380 m 6/8 5/8 - - -
Fr, 21.09. 14:00 540 m 8/8 8/8 - - -
Fr, 21.09. 8:00 6600 m 8/8 4/8 - - -
Fr, 21.09. 2:00 4800 m 8/8 8/8 - - -
Do, 20.09. 20:00 1800 m 7/8 7/8 - - -
Ortszeit Bedeckungsgrad in Achtel und Wolkenuntergrenze
Sa, 22.09. 19:00 3(1200m) 4(1800m) 6(2100m)
Sa, 22.09. 18:50 3(1200m) 4(1800m) 6(2100m)
Sa, 22.09. 18:40 1(1140m) 4(1800m) 6(2100m)
Sa, 22.09. 18:30 1(1260m) 4(1500m) 6(2100m)
Sa, 22.09. 18:20 1(1260m) 4(1500m) 6(2100m)
Sa, 22.09. 18:10 9 9 9
Sa, 22.09. 18:00 1(1350m) 3(2100m)
Sa, 22.09. 17:30 1(1380m) 2(1500m)
Sa, 22.09. 17:00 1(810m) 4(1140m) 6(1800m)
Sa, 22.09. 16:30 2(1800m) 1(1500m) 2(2100m)
Sa, 22.09. 16:00 7(1500m) 7(1800m)
Ortszeit Luftdruck NN (hPa) Tendenz (hPa in 3 Std.)
Sa, 22.09. 14:00 1012 - 0,4
Sa, 22.09. 8:00 1011 + 1,9
Sa, 22.09. 2:00 1007 + 1,9
Fr, 21.09. 20:00 1004 + 1,9
Fr, 21.09. 14:00 1000 + 1,3
Fr, 21.09. 8:00 1002 - 3,3
Fr, 21.09. 2:00 1008 - 2,8
Do, 20.09. 20:00 1012 - 0,8
Ortszeit Luftdruck NN (hPa) Tendenz (hPa in 3 Std.)
Sa, 22.09. 19:00 1012 - 0,4
Sa, 22.09. 18:50 1012 keine Meldung
Sa, 22.09. 18:40 1012 keine Meldung
Sa, 22.09. 18:30 1012 - 0,1
Sa, 22.09. 18:20 1012 keine Meldung
Sa, 22.09. 18:10 1012 keine Meldung
Sa, 22.09. 18:00 1012 - 0,1
Sa, 22.09. 17:30 1012 + 0,2
Sa, 22.09. 17:00 1012 + 0,2
Sa, 22.09. 16:30 1012 + 0,3
Sa, 22.09. 16:00 1012 + 0,2
Ortszeit Schneehöhe (cm)
Sa, 22.09. 14:00 -
Sa, 22.09. 8:00 -
Sa, 22.09. 2:00 -
Fr, 21.09. 20:00 -
Fr, 21.09. 14:00 -
Fr, 21.09. 8:00 -
Fr, 21.09. 2:00 -
Do, 20.09. 20:00 -
Ortszeit Schneehöhe (cm)
Sa, 22.09. 19:00 -
Sa, 22.09. 18:50 -
Sa, 22.09. 18:40 -
Sa, 22.09. 18:30 -
Sa, 22.09. 18:20 -
Sa, 22.09. 18:10 -
Sa, 22.09. 18:00 -
Sa, 22.09. 17:30 -
Sa, 22.09. 17:00 -
Sa, 22.09. 16:30 -
Sa, 22.09. 16:00 -
Link zu dieser Seite / Seite empfehlen

Das Wetter in ...